Whalley, United Kingdom
Current Conditions -  °F | °C
As of 1:50 AM on Tuesday 25 Nov 2014 (Local Time) from EGNM Reporting Station
Clear Clear  
Wind Chill: 37°   Ceiling: Unl
Heat Index: 37°   Visibility: 6mi
Dew Point: 36°   Wind: 2mph
Humidity: 93%   Direction: 210°SSW
Pressure: 30.27"   Gusts: NA
Location:  53.82°N, 2.41°W
Report Text: EGNM 250150Z 21002KT CAVOK 03/02 Q1025
Loading
Personal Weather Stations






























Interactive Weather Map New forecast layout! Learn more

10-Day Weather Forecast

Advertisements
Track Severe Weather on mobile